Create Custom Reports and Graphics: Custom Report

Squaw-Red Dog 6200'

Current Conditions

11/26/20 3:45 AM (-08:00)
Updated Every 15 Minutes
Temp 20.6 °F   17.0
RH 90 %   26
Dew Pt 18.0 °F   8.3
Wet Bulb 19.7 °F   13.6
Wind Dir WNW | 301 °
Wind Spd 0.9 mph   9.9
Wind Gust 2.0 mph   15.3
WindChill 20.6 °F   9.0
Daily Min Temp 20.5 °F   16.7
Daily Max Temp 25.6 °F   16.2
Latest Rain 0.00 In
Daily Rain 0.00 In
New Snow 80.6 in
SnowDepth 286.6 in

Last 24 Hours

Squaw-Red Dog 6200'

Hourly Data | America/Los_Angeles
as of 11/26/20 3:57 AM PST
Date & Time Temp (°F) RH (%) Dew Pt (°F) Wet Bulb (°F) Wind Dir (°) Wind Spd (mph) Wind Gust (mph) Latest Rain (In) New Snow (in) SnowDepth (in) Daily Min Temp (°F) Daily Max Temp (°F) Daily Rain (In)
11/26/20 - 0300 21.2 87 17.9 20.2 W | 277 0.6 2.3 0.00 80.0 286.0 20.9 25.6 0.00
11/26/20 - 0200 23.4 81 18.4 21.8 WSW | 250 1.6 4.1 0.00 79.7 287.0 23.3 25.6 0.00
11/26/20 - 0100 23.6 80 18.4 21.9 WSW | 246 1.7 6.4 0.00 79.8 286.4 23.5 25.6 0.00
11/26/20 - 0000 25.2 76 18.8 23.2 WSW | 244 1.5 5.9 0.00 80.1 287.1 24.7 41.8 0.00
11/25/20 - 2300 26.9 72 18.9 24.4 SW | 234 1.7 5.8 0.00 79.4 286.2 26.4 41.8 0.00
11/25/20 - 2200 28.2 68 19.1 25.3 SSW | 204 3.3 9.2 0.00 80.1 287.4 28.2 41.8 0.00
11/25/20 - 2100 29.3 70 20.8 26.4 WSW | 242 2.0 6.2 0.00 80.5 284.2 28.4 41.8 0.00
11/25/20 - 2000 30.4 72 22.7 27.7 SSW | 192 5.0 15.6 0.00 80.5 284.2 29.1 41.8 0.00
11/25/20 - 1900 32.3 73 24.6 29.5 SW | 234 1.6 9.7 0.00 81.6 279.5 29.1 41.8 0.00
11/25/20 - 1800 30.3 78 24.3 28.2 NW | 306 2.0 4.4 0.00 84.3 281.4 30.3 41.8 0.00
11/25/20 - 1700 34.0 69 24.8 30.7 NW | 324 3.9 7.2 0.00 83.2 287.1 34.0 41.8 0.00
11/25/20 - 1600 35.8 60 23.4 31.4 NNW | 340 3.5 9.7 0.00 82.1 291.0 35.0 41.8 0.00
11/25/20 - 1500 36.6 61 24.4 32.2 NNW | 341 4.8 12.0 0.00 81.9 291.2 35.0 41.8 0.00
11/25/20 - 1400 36.3 61 24.2 31.9 NNW | 347 8.5 17.3 0.00 81.9 292.0 35.0 41.8 0.00
11/25/20 - 1300 38.3 59 25.2 33.4 N | 0 11.2 22.9 0.00 81.7 292.6 35.0 41.8 0.00
11/25/20 - 1200 37.2 61 25.0 32.7 N | 9 14.2 25.7 0.00 80.3 290.4 35.0 41.8 0.00
11/25/20 - 1100 36.7 67 26.7 32.9 N | 10 17.1 28.3 0.00 80.4 290.3 35.0 41.8 0.00
11/25/20 - 1000 36.2 68 26.7 32.6 N | 10 18.4 31.3 0.00 79.6 290.4 35.0 41.8 0.00
11/25/20 - 0900 35.8 71 27.2 32.6 NNE | 12 17.1 27.8 0.00 80.1 290.8 35.4 41.8 0.00
11/25/20 - 0800 36.3 67 26.6 32.7 N | 4 14.9 24.2 0.00 76.8 285.8 35.4 41.8 0.00
11/25/20 - 0700 36.4 62 24.8 32.2 N | 10 16.0 26.8 0.00 77.4 287.1 36.2 41.8 0.00
11/25/20 - 0600 36.6 62 24.7 32.2 N | 6 15.4 25.5 0.00 80.5 290.1 36.6 41.8 0.00
11/25/20 - 0500 37.6 60 24.9 32.9 N | 355 12.2 22.0 0.00 77.7 284.6 36.6 41.8 0.00
11/25/20 - 0400 37.0 65 26.2 33.0 N | 351 11.8 28.0 0.00 80.0 287.4 36.9 41.8 0.00
11/25/20 - 0300 38.6 62 26.7 34.0 N | 356 14.1 25.3 0.00 77.8 284.4 38.1 41.8 0.00
Max 38.6 87 27.2 34.0 - 18.4 31.3 0.00 84.3 292.6 38.1 41.8 0.00
Avg 32.8 68 23.4 29.4 - 8.2 16.1 0.00 80.3 287.4 - - -
Min 21.2 59 17.9 20.2 - 0.6 2.3 0.00 76.8 279.5 20.9 25.6 0.00
Total - - - - - - - 0.00 - - - - -

Last 30 Days

Squaw-Red Dog 6200'

Daily Data | America/Los_Angeles
as of 11/26/20 3:57 AM PST
Date Daily Max Temp (°F) Time of Max Temp Daily Min Temp (°F) Time of Min Temp Daily Rain (In) New Snow (in) SnowDepth (in) Wind Spd (mph) Daily Max Wind (mph) Time of Max Wind Max Wind Dir (°) Max RH (%) Min RH (%) Wet Bulb (°F) WetB Hrs <28F (hrs) Bat Volt Min Day (V)
11/25/20 41.8 0007 24.7 2358 0.00 80.1 287.1 9.6 31.3 0929 N | 0 84 53 31.1 14.7 12.5
11/24/20 - 1505 20.5 0821 0.00 78.9 281.9 1.4 22.1 2358 NNE | 32 98 39 - - 12.5
11/23/20 45.9 1344 24.1 2358 0.00 78.4 252.5 1.4 11.2 0017 NNW | 342 98 40 - - 12.4
11/22/20 51.3 1254 23.4 0600 0.00 82.1 290.4 2.8 25.0 2115 NNW | 346 99 27 - - 12.5
11/21/20 44.0 1307 21.5 0538 0.00 81.3 139.1 0.8 4.2 1014 WNW | 294 99 65 - - 12.5
11/20/20 43.4 1414 20.2 0629 0.00 81.2 144.8 0.7 6.9 1515 NW | 311 99 61 27.1 - 12.5
11/19/20 43.9 1249 24.3 2345 0.00 81.6 210.3 2.9 23.3 0031 NNE | 20 98 49 29.3 - 12.5
11/18/20 39.8 1104 32.7 0215 0.00 82.9 281.1 6.2 30.8 1428 NNE | 18 100 68 - 0.0 12.5
11/17/20 55.7 0003 33.2 2355 0.00 79.3 240.0 7.0 29.9 0013 NNE | 19 98 23 37.5 0.0 12.5
11/16/20 63.3 1329 25.7 0411 0.00 79.3 288.3 1.6 25.7 2357 NNE | 17 97 16 - 23.9 12.5
11/15/20 49.8 1514 27.9 2329 0.00 79.4 288.6 3.4 17.9 1404 NNE | 24 94 18 34.3 3.0 12.6
11/14/20 44.8 1250 24.0 0653 0.00 77.6 287.2 4.7 23.9 0048 NNW | 327 95 21 30.4 17.0 12.6
11/13/20 38.7 0332 32.9 1314 0.00 79.4 247.6 12.5 37.1 1034 NE | 46 91 32 32.6 0.0 12.6
11/12/20 48.0 1315 12.9 0613 0.00 79.7 290.5 2.3 15.9 1146 NNE | 25 94 18 23.9 - 12.5
11/11/20 43.9 1320 18.1 2324 0.00 81.0 290.3 4.7 18.5 0251 N | 349 88 23 26.1 - 12.5
11/10/20 48.0 1242 13.6 0619 0.00 80.6 161.6 2.3 18.1 1332 NNE | 26 96 24 24.4 - 12.5
11/9/20 33.3 1241 8.5 0242 0.00 76.4 248.2 1.6 10.2 1150 NNW | 345 95 55 19.0 - 12.6
11/8/20 29.1 1455 11.5 2347 0.00 76.9 275.9 3.7 23.5 0115 NNW | 334 97 53 20.8 - 12.5
11/7/20 33.6 1100 20.4 0627 0.00 82.1 293.8 5.9 26.7 1830 NNE | 24 96 61 26.1 - 12.5
11/6/20 53.5 0010 26.8 2358 0.00 82.5 292.2 7.4 31.6 0726 N | 350 92 33 - 19.2 12.5
11/5/20 70.3 1337 29.1 0646 0.00 78.2 286.8 2.5 15.3 1350 NE | 37 69 14 37.3 10.5 12.5
11/4/20 68.4 1335 28.6 0624 0.00 79.0 290.3 1.3 10.5 1249 NE | 52 76 14 35.6 12.9 12.5
11/3/20 65.7 1338 29.5 0653 0.00 80.1 289.4 1.8 14.3 1330 NNE | 24 57 17 34.9 17.6 12.5
11/2/20 70.4 1454 29.8 0601 0.00 82.2 292.9 1.8 12.7 1645 NNW | 327 62 12 36.1 15.1 12.6
11/1/20 74.2 1338 29.6 0616 0.00 77.6 286.8 1.7 10.0 1424 N | 3 87 11 35.5 1.0 12.6
10/31/20 70.6 1615 27.9 0658 0.00 79.7 290.1 1.7 8.4 1347 SSW | 193 94 16 35.3 10.4 12.5
10/30/20 68.1 1356 26.5 0702 0.00 80.1 290.1 2.8 13.0 1526 NNW | 345 95 11 34.3 22.5 12.6
10/29/20 67.5 1512 25.7 0828 0.00 76.2 282.4 1.4 8.0 1215 SSW | 199 95 8 32.5 - 12.6
10/28/20 68.4 1529 25.0 0732 0.00 80.5 289.6 1.4 9.3 1441 SSE | 164 96 7 32.6 - 12.5
10/27/20 59.3 1528 24.7 0807 0.00 84.1 295.1 2.6 14.8 1553 SSE | 153 93 20 32.1 - 12.5
Max 74.2 - 33.2 - 0.00 84.1 295.1 12.5 37.1 - - 100 68 37.5 23.9 12.6
Avg - - - - - 79.9 266.2 3.4 - - - - - 30.8 - -
Min 29.1 - 8.5 - 0.00 76.2 139.1 0.7 4.2 - - 57 7 19.0 0.0 12.4
Calm: 0.0%
Calm: 0.6%